createdAt,value
2023-03-25T00:00:16.658Z,14.10
2023-03-25T00:02:50.282Z,14.10
2023-03-25T00:05:19.931Z,14.10
2023-03-25T00:07:50.507Z,14.10
2023-03-25T00:10:17.795Z,14.10
2023-03-25T00:12:44.835Z,14.10
2023-03-25T00:15:12.859Z,14.10
2023-03-25T00:17:39.687Z,14.10
2023-03-25T00:20:11.379Z,14.10
2023-03-25T00:22:44.510Z,14.10
2023-03-25T00:25:18.877Z,14.00
2023-03-25T00:27:47.200Z,14.00
2023-03-25T00:30:15.701Z,14.00
2023-03-25T00:32:45.768Z,13.90
2023-03-25T00:35:13.776Z,13.90
2023-03-25T00:37:41.181Z,13.90
2023-03-25T00:40:08.956Z,13.90
2023-03-25T00:42:35.749Z,13.90
2023-03-25T00:45:03.119Z,13.90
2023-03-25T00:47:30.104Z,13.90
2023-03-25T00:49:56.853Z,13.90
2023-03-25T00:52:23.580Z,13.80
2023-03-25T00:54:52.690Z,13.90
2023-03-25T00:57:22.126Z,13.90
2023-03-25T00:59:50.304Z,13.90
2023-03-25T01:02:18.917Z,13.90
2023-03-25T01:04:46.629Z,13.90
2023-03-25T01:07:16.050Z,13.90
2023-03-25T01:09:46.377Z,13.90
2023-03-25T01:12:15.490Z,13.80
2023-03-25T01:14:42.557Z,13.80
2023-03-25T01:17:10.233Z,13.80
2023-03-25T01:19:37.264Z,13.80
2023-03-25T01:22:04.096Z,13.80
2023-03-25T01:24:31.492Z,13.80
2023-03-25T01:26:58.498Z,13.90
2023-03-25T01:29:28.144Z,13.90
2023-03-25T01:31:55.537Z,13.90
2023-03-25T01:34:22.625Z,13.90
2023-03-25T01:36:50.036Z,13.90
2023-03-25T01:39:18.746Z,13.90
2023-03-25T01:41:50.045Z,13.90
2023-03-25T01:44:20.997Z,13.90
2023-03-25T01:46:49.670Z,13.80
2023-03-25T01:49:24.416Z,13.80
2023-03-25T01:52:19.006Z,13.80
2023-03-25T01:54:47.691Z,13.80
2023-03-25T01:57:19.464Z,13.70
2023-03-25T01:59:46.962Z,13.70
2023-03-25T02:02:15.684Z,13.70
2023-03-25T02:04:42.694Z,13.60
2023-03-25T02:07:10.104Z,13.60
2023-03-25T02:09:38.058Z,13.60
2023-03-25T02:12:07.367Z,13.60
2023-03-25T02:14:37.084Z,13.50
2023-03-25T02:17:39.053Z,13.50
2023-03-25T02:20:24.038Z,13.40
2023-03-25T02:23:21.783Z,13.40
2023-03-25T02:25:54.872Z,13.30
2023-03-25T02:28:41.873Z,13.30
2023-03-25T02:31:34.663Z,13.10
2023-03-25T02:34:14.133Z,13.00
2023-03-25T02:37:19.074Z,13.00
2023-03-25T02:39:56.392Z,13.00
2023-03-25T02:43:01.770Z,12.90
2023-03-25T02:45:40.249Z,12.90
2023-03-25T02:48:21.817Z,12.90
2023-03-25T02:50:57.737Z,12.90
2023-03-25T02:53:29.634Z,12.90
2023-03-25T02:56:01.248Z,13.00
2023-03-25T02:58:30.094Z,13.00
2023-03-25T03:01:00.306Z,13.00
2023-03-25T03:03:28.151Z,13.00
2023-03-25T03:06:01.658Z,13.00
2023-03-25T03:08:50.327Z,13.00
2023-03-25T03:11:22.952Z,13.10
2023-03-25T03:13:58.507Z,13.10
2023-03-25T03:16:34.077Z,13.00
2023-03-25T03:19:21.175Z,13.00
2023-03-25T03:22:17.650Z,13.10
2023-03-25T03:24:51.310Z,13.10
2023-03-25T03:27:34.099Z,13.20
2023-03-25T03:30:10.769Z,13.20
2023-03-25T03:33:21.754Z,13.20
2023-03-25T03:36:13.588Z,13.20
2023-03-25T03:38:46.577Z,13.30
2023-03-25T03:41:19.165Z,13.30
2023-03-25T03:43:52.101Z,13.30
2023-03-25T03:46:24.575Z,13.20
2023-03-25T03:48:59.789Z,13.30
2023-03-25T03:51:40.359Z,13.20
2023-03-25T03:54:16.037Z,13.30
2023-03-25T03:56:57.209Z,13.30
2023-03-25T03:59:42.520Z,13.30
2023-03-25T04:02:23.440Z,13.30
2023-03-25T04:04:53.818Z,13.30
2023-03-25T04:07:46.593Z,13.20
2023-03-25T04:10:34.771Z,13.10
2023-03-25T04:13:05.603Z,13.00
2023-03-25T04:15:32.482Z,13.00
2023-03-25T04:18:01.590Z,13.00
2023-03-25T04:20:33.945Z,12.90
2023-03-25T04:23:01.269Z,12.90
2023-03-25T04:25:29.604Z,12.90
2023-03-25T04:27:58.867Z,12.90
2023-03-25T04:30:28.249Z,12.90
2023-03-25T04:32:55.338Z,12.80
2023-03-25T04:35:22.202Z,12.80
2023-03-25T04:37:49.164Z,12.80
2023-03-25T04:40:18.699Z,12.70
2023-03-25T04:42:46.565Z,12.70
2023-03-25T04:45:16.936Z,12.60
2023-03-25T04:47:47.151Z,12.60
2023-03-25T04:50:24.163Z,12.50
2023-03-25T04:52:53.053Z,12.50
2023-03-25T04:55:21.294Z,12.50
2023-03-25T04:57:50.855Z,12.40
2023-03-25T05:00:20.739Z,12.40
2023-03-25T05:02:49.787Z,12.40
2023-03-25T05:05:19.569Z,12.40
2023-03-25T05:07:50.745Z,12.50
2023-03-25T05:10:19.606Z,12.50
2023-03-25T05:12:46.696Z,12.50
2023-03-25T05:15:14.505Z,12.60
2023-03-25T05:17:41.294Z,12.50
2023-03-25T05:20:08.930Z,12.60
2023-03-25T05:22:37.825Z,12.50
2023-03-25T05:25:10.029Z,12.40
2023-03-25T05:27:38.158Z,12.30
2023-03-25T05:30:06.618Z,12.20
2023-03-25T05:32:33.671Z,12.20
2023-03-25T05:35:01.095Z,12.20
2023-03-25T05:37:28.377Z,12.20
2023-03-25T05:39:56.304Z,12.10
2023-03-25T05:42:23.767Z,12.00
2023-03-25T05:44:51.601Z,12.00
2023-03-25T05:47:21.720Z,12.00
2023-03-25T05:49:49.716Z,11.90
2023-03-25T05:52:18.021Z,12.00
2023-03-25T05:54:45.743Z,12.00
2023-03-25T05:57:13.313Z,12.00
2023-03-25T05:59:40.640Z,12.00
2023-03-25T06:02:16.582Z,12.00
2023-03-25T06:04:43.795Z,12.00
2023-03-25T06:07:19.705Z,12.00
2023-03-25T06:09:50.063Z,12.00
2023-03-25T06:12:19.965Z,12.10
2023-03-25T06:14:48.026Z,12.20
2023-03-25T06:17:18.964Z,12.30
2023-03-25T06:19:45.751Z,12.40
2023-03-25T06:22:12.825Z,12.50
2023-03-25T06:24:41.186Z,12.50
2023-03-25T06:27:12.837Z,12.50
2023-03-25T06:29:41.803Z,12.60
2023-03-25T06:32:10.170Z,12.60
2023-03-25T06:34:37.267Z,12.60
2023-03-25T06:37:04.186Z,12.70
2023-03-25T06:39:31.425Z,12.80
2023-03-25T06:42:00.874Z,12.80
2023-03-25T06:44:36.523Z,12.90
2023-03-25T06:47:23.041Z,12.90
2023-03-25T06:49:50.448Z,12.80
2023-03-25T06:52:17.344Z,12.80
2023-03-25T06:54:44.145Z,12.70
2023-03-25T06:57:10.886Z,12.60
2023-03-25T06:59:37.780Z,12.60
2023-03-25T07:02:04.534Z,12.60
2023-03-25T07:04:31.440Z,12.50
2023-03-25T07:06:58.245Z,12.50
2023-03-25T07:09:25.003Z,12.40
2023-03-25T07:11:51.753Z,12.30
2023-03-25T07:14:18.517Z,12.30
2023-03-25T07:16:45.383Z,12.30
2023-03-25T07:19:12.157Z,12.30
2023-03-25T07:21:38.915Z,12.30
2023-03-25T07:24:05.949Z,12.30
2023-03-25T07:26:32.931Z,12.20
2023-03-25T07:28:59.769Z,12.30
2023-03-25T07:31:26.510Z,12.30
2023-03-25T07:33:53.283Z,12.30
2023-03-25T07:36:21.922Z,12.30
2023-03-25T07:38:48.707Z,12.30
2023-03-25T07:41:15.693Z,12.30
2023-03-25T07:44:06.207Z,12.30
2023-03-25T07:46:32.991Z,12.30
2023-03-25T07:48:59.780Z,12.30
2023-03-25T07:51:26.732Z,12.40
2023-03-25T07:53:53.479Z,12.40
2023-03-25T07:56:20.445Z,12.50
2023-03-25T07:58:49.567Z,12.70
2023-03-25T08:01:16.429Z,12.60
2023-03-25T08:03:43.269Z,12.70
2023-03-25T08:06:10.277Z,12.60
2023-03-25T08:08:37.291Z,12.60
2023-03-25T08:11:04.525Z,12.60
2023-03-25T08:13:31.420Z,12.60
2023-03-25T08:15:58.182Z,12.70
2023-03-25T08:18:25.662Z,12.60
2023-03-25T08:20:52.567Z,12.70
2023-03-25T08:23:20.449Z,12.60
2023-03-25T08:25:49.337Z,12.60
2023-03-25T08:28:21.844Z,12.60
2023-03-25T08:30:49.777Z,12.60
2023-03-25T08:33:18.542Z,12.70
2023-03-25T08:35:45.355Z,12.70
2023-03-25T08:38:12.290Z,12.70
2023-03-25T08:40:42.619Z,12.70
2023-03-25T08:43:10.211Z,12.80
2023-03-25T08:45:37.033Z,12.80
2023-03-25T08:48:04.402Z,12.70
2023-03-25T08:50:31.169Z,12.80
2023-03-25T08:52:58.702Z,12.90
2023-03-25T08:55:26.835Z,13.00
2023-03-25T08:57:53.670Z,13.10
2023-03-25T09:00:24.259Z,13.20
2023-03-25T09:02:51.615Z,13.50
2023-03-25T09:05:19.139Z,13.80
2023-03-25T09:07:46.768Z,14.20
2023-03-25T09:10:14.206Z,14.60
2023-03-25T09:12:41.278Z,15.00
2023-03-25T09:15:09.424Z,15.10
2023-03-25T09:17:36.313Z,14.90
2023-03-25T09:20:04.173Z,14.80
2023-03-25T09:22:30.938Z,14.50
2023-03-25T09:24:57.715Z,14.30
2023-03-25T09:27:24.448Z,14.30
2023-03-25T09:29:51.402Z,14.10
2023-03-25T09:32:18.705Z,13.90
2023-03-25T09:34:45.712Z,13.90
2023-03-25T09:37:12.498Z,14.10
2023-03-25T09:39:39.258Z,14.60
2023-03-25T09:42:27.163Z,14.90
2023-03-25T09:45:21.437Z,15.50
2023-03-25T09:48:13.987Z,15.50
2023-03-25T09:50:43.132Z,15.00
2023-03-25T09:53:09.833Z,14.80
2023-03-25T09:55:44.629Z,14.60
2023-03-25T09:58:26.971Z,14.50
2023-03-25T10:01:29.975Z,14.30
2023-03-25T10:04:14.946Z,14.20
2023-03-25T10:06:58.170Z,14.30
2023-03-25T10:09:53.034Z,14.20
2023-03-25T10:12:41.573Z,14.10
2023-03-25T10:15:21.561Z,14.20
2023-03-25T10:18:29.665Z,15.00
2023-03-25T10:21:31.100Z,17.00
2023-03-25T10:24:12.924Z,17.10
2023-03-25T10:27:06.106Z,17.10
2023-03-25T10:29:47.332Z,16.80
2023-03-25T10:32:18.326Z,16.20
2023-03-25T10:34:54.239Z,15.60
2023-03-25T10:37:30.084Z,15.00
2023-03-25T10:40:13.229Z,14.60
2023-03-25T10:42:47.965Z,14.40
2023-03-25T10:45:18.082Z,14.50
2023-03-25T10:47:47.434Z,14.80
2023-03-25T10:50:19.142Z,14.90
2023-03-25T10:52:48.940Z,14.80
2023-03-25T10:55:25.801Z,14.90
2023-03-25T10:57:54.028Z,14.80
2023-03-25T11:00:23.180Z,14.60
2023-03-25T11:02:50.768Z,14.60
2023-03-25T11:05:20.759Z,14.40
2023-03-25T11:07:53.981Z,14.30
2023-03-25T11:10:24.874Z,14.30
2023-03-25T11:12:53.827Z,14.30
2023-03-25T11:15:31.752Z,14.30
2023-03-25T11:18:08.269Z,14.30
2023-03-25T11:20:40.330Z,14.40
2023-03-25T11:23:31.388Z,14.50
2023-03-25T11:26:06.083Z,14.40
2023-03-25T11:28:39.139Z,14.30
2023-03-25T11:31:09.356Z,14.60
2023-03-25T11:33:37.117Z,14.70
2023-03-25T11:36:17.691Z,14.70
2023-03-25T11:38:50.984Z,14.60
2023-03-25T11:41:17.854Z,14.50
2023-03-25T11:43:48.800Z,14.70
2023-03-25T11:46:21.655Z,15.30
2023-03-25T11:48:50.142Z,15.70
2023-03-25T11:51:24.388Z,15.70
2023-03-25T11:54:03.004Z,15.50
2023-03-25T11:56:35.970Z,15.20
2023-03-25T11:59:07.385Z,14.80
2023-03-25T12:01:48.148Z,14.70
2023-03-25T12:04:20.881Z,14.80
2023-03-25T12:07:00.369Z,15.00
2023-03-25T12:09:30.762Z,15.80
2023-03-25T12:12:11.768Z,19.00
2023-03-25T12:14:57.024Z,19.50
2023-03-25T12:17:46.202Z,19.40
2023-03-25T12:20:46.389Z,18.60
2023-03-25T12:23:29.805Z,17.80
2023-03-25T12:26:11.067Z,20.50
2023-03-25T12:28:59.471Z,20.70
2023-03-25T12:31:26.180Z,20.70
2023-03-25T12:34:01.915Z,22.70
2023-03-25T12:36:44.688Z,25.30
2023-03-25T12:39:42.916Z,25.30
2023-03-25T12:42:34.941Z,24.40
2023-03-25T12:45:37.548Z,22.40
2023-03-25T12:48:30.037Z,20.70
2023-03-25T12:51:11.714Z,19.10
2023-03-25T12:54:05.833Z,18.40
2023-03-25T12:56:54.798Z,17.80
2023-03-25T12:59:46.988Z,17.60
2023-03-25T13:02:37.166Z,17.20
2023-03-25T13:05:06.751Z,18.00
2023-03-25T13:07:40.965Z,18.30
2023-03-25T13:10:17.685Z,18.00
2023-03-25T13:12:53.725Z,18.10
2023-03-25T13:15:27.702Z,17.90
2023-03-25T13:18:26.762Z,18.30
2023-03-25T13:21:21.633Z,21.80
2023-03-25T13:23:56.932Z,25.00
2023-03-25T13:26:29.351Z,24.50
2023-03-25T13:29:05.845Z,23.40
2023-03-25T13:31:37.888Z,23.70
2023-03-25T13:34:39.980Z,24.20
2023-03-25T13:37:21.874Z,22.90
2023-03-25T13:40:14.448Z,22.20
2023-03-25T13:42:59.822Z,21.40
2023-03-25T13:45:30.405Z,20.60
2023-03-25T13:47:57.258Z,20.90
2023-03-25T13:50:30.720Z,21.20
2023-03-25T13:53:27.013Z,20.90
2023-03-25T13:56:30.246Z,21.60
2023-03-25T13:59:16.080Z,22.40
2023-03-25T14:02:04.311Z,22.60
2023-03-25T14:04:42.762Z,21.30
2023-03-25T14:07:24.803Z,19.60
2023-03-25T14:09:52.227Z,18.60
2023-03-25T14:12:24.077Z,17.80
2023-03-25T14:15:00.171Z,17.00
2023-03-25T14:17:29.872Z,16.20
2023-03-25T14:19:59.829Z,15.50
2023-03-25T14:22:32.573Z,14.80
2023-03-25T14:25:00.432Z,14.50
2023-03-25T14:27:32.626Z,14.70
2023-03-25T14:30:21.453Z,16.00
2023-03-25T14:32:49.899Z,17.40
2023-03-25T14:35:34.900Z,18.60
2023-03-25T14:38:08.347Z,19.40
2023-03-25T14:40:55.502Z,19.40
2023-03-25T14:43:40.303Z,19.00
2023-03-25T14:46:13.802Z,18.80
2023-03-25T14:48:49.061Z,18.30
2023-03-25T14:51:28.348Z,17.90
2023-03-25T14:54:01.432Z,17.40
2023-03-25T14:57:16.087Z,17.00
2023-03-25T14:59:50.589Z,16.70
2023-03-25T15:02:24.646Z,16.40
2023-03-25T15:05:05.127Z,16.20
2023-03-25T15:08:00.184Z,16.10
2023-03-25T15:10:36.930Z,16.10
2023-03-25T15:13:12.022Z,16.00
2023-03-25T15:15:44.624Z,15.80
2023-03-25T15:18:13.044Z,15.70
2023-03-25T15:20:39.932Z,15.70
2023-03-25T15:23:30.287Z,15.70
2023-03-25T15:25:59.424Z,15.60
2023-03-25T15:29:01.164Z,15.60
2023-03-25T15:31:40.936Z,15.70
2023-03-25T15:34:26.499Z,15.50
2023-03-25T15:37:43.295Z,15.30
2023-03-25T15:40:41.994Z,15.00
2023-03-25T15:43:20.698Z,14.90
2023-03-25T15:46:24.761Z,14.80
2023-03-25T15:49:38.649Z,14.70
2023-03-25T15:52:44.224Z,14.50
2023-03-25T15:55:19.018Z,14.30
2023-03-25T15:57:49.920Z,14.10
2023-03-25T16:00:24.577Z,14.10
2023-03-25T16:03:06.514Z,14.20
2023-03-25T16:05:39.414Z,14.20
2023-03-25T16:08:18.783Z,14.20
2023-03-25T16:10:46.439Z,14.30
2023-03-25T16:13:23.933Z,14.40
2023-03-25T16:15:57.201Z,14.50
2023-03-25T16:18:24.874Z,14.60
2023-03-25T16:20:57.747Z,14.70
2023-03-25T16:23:27.056Z,14.70
2023-03-25T16:25:56.492Z,14.70
2023-03-25T16:28:29.066Z,14.70
2023-03-25T16:30:55.962Z,14.90
2023-03-25T16:33:28.728Z,15.00
2023-03-25T16:36:02.635Z,15.10
2023-03-25T16:38:31.565Z,15.00
2023-03-25T16:41:03.939Z,14.80
2023-03-25T16:43:31.455Z,14.60
2023-03-25T16:46:01.712Z,14.30
2023-03-25T16:48:32.013Z,13.80
2023-03-25T16:51:19.686Z,13.50
2023-03-25T16:53:50.662Z,13.30
2023-03-25T16:56:17.392Z,13.20
2023-03-25T16:59:16.455Z,13.10
2023-03-25T17:01:50.282Z,13.00
2023-03-25T17:04:22.038Z,12.90
2023-03-25T17:06:55.907Z,12.90
2023-03-25T17:09:34.411Z,13.00
2023-03-25T17:12:06.289Z,13.00
2023-03-25T17:14:37.546Z,13.00
2023-03-25T17:17:33.107Z,12.90
2023-03-25T17:20:11.109Z,12.80
2023-03-25T17:22:39.337Z,12.80
2023-03-25T17:25:32.460Z,12.70
2023-03-25T17:28:31.006Z,12.70
2023-03-25T17:30:58.000Z,12.70
2023-03-25T17:33:35.941Z,12.70
2023-03-25T17:36:07.804Z,12.70
2023-03-25T17:38:50.186Z,12.80
2023-03-25T17:41:18.496Z,12.90
2023-03-25T17:43:51.250Z,12.90
2023-03-25T17:46:31.930Z,12.90
2023-03-25T17:48:59.522Z,12.90
2023-03-25T17:51:28.180Z,12.90
2023-03-25T17:53:55.407Z,12.90
2023-03-25T17:56:28.130Z,12.80
2023-03-25T17:59:02.924Z,12.70
2023-03-25T18:01:31.284Z,12.80
2023-03-25T18:03:58.489Z,12.80
2023-03-25T18:06:25.947Z,12.80
2023-03-25T18:08:53.003Z,12.70
2023-03-25T18:11:20.682Z,12.70
2023-03-25T18:13:50.415Z,12.80
2023-03-25T18:16:19.506Z,12.80
2023-03-25T18:18:46.611Z,12.90
2023-03-25T18:21:15.681Z,12.80
2023-03-25T18:23:47.980Z,12.80
2023-03-25T18:26:18.445Z,12.80
2023-03-25T18:28:48.459Z,12.80
2023-03-25T18:31:17.602Z,12.70
2023-03-25T18:33:50.183Z,12.80
2023-03-25T18:36:18.275Z,12.70
2023-03-25T18:38:45.863Z,12.60
2023-03-25T18:41:17.311Z,12.60
2023-03-25T18:43:44.698Z,12.50
2023-03-25T18:46:13.988Z,12.40
2023-03-25T18:48:41.665Z,12.40
2023-03-25T18:51:13.638Z,12.30
2023-03-25T18:53:41.130Z,12.30
2023-03-25T18:56:08.828Z,12.30
2023-03-25T18:58:36.403Z,12.30
2023-03-25T19:01:06.029Z,12.30
2023-03-25T19:03:38.609Z,12.30
2023-03-25T19:06:09.145Z,12.20
2023-03-25T19:08:36.876Z,12.20
2023-03-25T19:11:16.300Z,12.20
2023-03-25T19:13:47.320Z,12.20
2023-03-25T19:16:14.150Z,12.30
2023-03-25T19:18:40.932Z,12.20
2023-03-25T19:21:08.168Z,12.20
2023-03-25T19:23:36.307Z,12.10
2023-03-25T19:26:04.481Z,12.00
2023-03-25T19:28:31.318Z,12.00
2023-03-25T19:31:00.900Z,12.10
2023-03-25T19:33:30.752Z,12.10
2023-03-25T19:36:01.127Z,12.10
2023-03-25T19:38:28.662Z,12.10
2023-03-25T19:41:10.423Z,12.10
2023-03-25T19:43:37.477Z,12.20
2023-03-25T19:46:05.893Z,12.20
2023-03-25T19:48:33.334Z,12.20
2023-03-25T19:51:00.206Z,12.30
2023-03-25T19:53:28.090Z,12.20
2023-03-25T19:55:56.188Z,12.20
2023-03-25T19:58:23.157Z,12.10
2023-03-25T20:00:51.202Z,12.10
2023-03-25T20:03:22.064Z,12.10
2023-03-25T20:05:50.123Z,12.10
2023-03-25T20:08:16.954Z,12.10
2023-03-25T20:10:44.017Z,12.10
2023-03-25T20:13:11.188Z,12.10
2023-03-25T20:15:37.961Z,12.00
2023-03-25T20:18:06.716Z,12.00
2023-03-25T20:20:33.589Z,12.00
2023-03-25T20:23:00.332Z,12.00
2023-03-25T20:25:27.202Z,12.00
2023-03-25T20:27:55.514Z,12.00
2023-03-25T20:30:22.308Z,11.90
2023-03-25T20:32:49.261Z,12.00
2023-03-25T20:35:17.566Z,11.90
2023-03-25T20:37:46.885Z,12.00
2023-03-25T20:40:17.457Z,11.90
2023-03-25T20:42:46.331Z,11.90
2023-03-25T20:45:15.046Z,12.00
2023-03-25T20:47:42.322Z,12.00
2023-03-25T20:50:12.862Z,12.00
2023-03-25T20:52:40.124Z,12.00
2023-03-25T20:55:09.697Z,12.00
2023-03-25T20:57:37.125Z,12.00
2023-03-25T21:00:04.930Z,12.00
2023-03-25T21:02:32.113Z,11.90
2023-03-25T21:05:01.057Z,11.90
2023-03-25T21:07:31.624Z,11.90
2023-03-25T21:09:59.259Z,11.90
2023-03-25T21:12:36.413Z,11.90
2023-03-25T21:15:10.109Z,12.00
2023-03-25T21:17:37.184Z,12.00
2023-03-25T21:20:07.685Z,12.10
2023-03-25T21:22:35.073Z,12.10
2023-03-25T21:25:01.938Z,12.10
2023-03-25T21:27:39.210Z,12.10
2023-03-25T21:30:09.650Z,12.20
2023-03-25T21:32:39.999Z,12.20
2023-03-25T21:35:08.091Z,12.30
2023-03-25T21:37:37.757Z,12.30
2023-03-25T21:40:08.013Z,12.40
2023-03-25T21:42:38.098Z,12.40
2023-03-25T21:45:07.305Z,12.30
2023-03-25T21:47:34.973Z,12.30
2023-03-25T21:50:02.902Z,12.20
2023-03-25T21:52:29.626Z,12.20
2023-03-25T21:54:59.193Z,12.20
2023-03-25T21:57:26.622Z,12.20
2023-03-25T21:59:56.100Z,12.10
2023-03-25T22:02:22.944Z,12.10
2023-03-25T22:04:49.733Z,12.10
2023-03-25T22:07:16.478Z,12.10
2023-03-25T22:09:43.238Z,12.10
2023-03-25T22:12:10.255Z,12.10
2023-03-25T22:14:36.968Z,12.00
2023-03-25T22:17:03.783Z,12.10
2023-03-25T22:19:31.288Z,12.10
2023-03-25T22:21:58.142Z,12.10
2023-03-25T22:24:24.952Z,12.10
2023-03-25T22:26:51.649Z,12.20
2023-03-25T22:29:18.441Z,12.20
2023-03-25T22:31:45.216Z,12.20
2023-03-25T22:34:15.721Z,12.20
2023-03-25T22:36:49.584Z,12.20
2023-03-25T22:39:18.555Z,12.30
2023-03-25T22:41:46.062Z,12.40
2023-03-25T22:44:16.697Z,12.40
2023-03-25T22:46:44.089Z,12.50
2023-03-25T22:49:10.972Z,12.50
2023-03-25T22:51:37.718Z,12.60
2023-03-25T22:54:05.270Z,12.60
2023-03-25T22:56:35.360Z,12.50
2023-03-25T22:59:04.230Z,12.50
2023-03-25T23:01:31.207Z,12.50
2023-03-25T23:03:58.285Z,12.40
2023-03-25T23:06:26.480Z,12.40
2023-03-25T23:08:56.160Z,12.40
2023-03-25T23:11:28.330Z,12.40
2023-03-25T23:14:01.372Z,12.40
2023-03-25T23:16:30.709Z,12.50
2023-03-25T23:18:58.380Z,12.50
2023-03-25T23:21:29.235Z,12.50
2023-03-25T23:23:58.938Z,12.60
2023-03-25T23:26:38.912Z,12.60
2023-03-25T23:29:09.482Z,12.60
2023-03-25T23:31:37.881Z,12.70
2023-03-25T23:34:07.477Z,12.80
2023-03-25T23:36:39.307Z,12.80
2023-03-25T23:39:08.739Z,12.80
2023-03-25T23:41:36.162Z,12.90
2023-03-25T23:44:03.593Z,12.90
2023-03-25T23:46:31.039Z,12.90
2023-03-25T23:49:02.553Z,12.90
2023-03-25T23:51:38.354Z,12.90
2023-03-25T23:54:06.770Z,12.90
2023-03-25T23:56:34.088Z,12.90
2023-03-25T23:59:01.735Z,12.90
